Time;durP1;ratioP1;P1;durP2;ratioP2;P2;SDS_P1;SDS_P2;PMS_P1;PMS_P2;Temp;Humidity;BMP_temperature;BMP_pressure;BME280_temperature;BME280_humidity;BME280_pressure;Samples;Min_cycle;Max_cycle;Signal;HPM_P1;HPM_P2
2024/01/26 00:02:04;;;;;;;38.78;16.00;;;;;;;4.84;61.88;102158.81;4921739;28;20035;-69
2024/01/26 00:04:32;;;;;;;47.53;14.18;;;;;;;4.72;62.39;102151.00;4927314;28;20134;-69
2024/01/26 00:06:58;;;;;;;43.47;14.13;;;;;;;4.80;61.88;102149.28;4921629;28;20668;-69
2024/01/26 00:09:23;;;;;;;49.22;16.45;;;;;;;4.75;62.13;102151.00;4918086;28;20066;-68
2024/01/26 00:11:51;;;;;;;48.03;15.70;;;;;;;4.45;63.12;102140.47;4919510;28;20165;-68
2024/01/26 00:14:16;;;;;;;51.90;17.17;;;;;;;4.65;62.99;102144.03;4907768;28;20031;-70
2024/01/26 00:16:42;;;;;;;42.28;16.33;;;;;;;4.80;62.41;102131.16;4920182;28;20102;-70
2024/01/26 00:19:08;;;;;;;46.95;16.50;;;;;;;4.87;62.17;102129.44;4919196;28;20031;-70
2024/01/26 00:21:34;;;;;;;45.00;15.55;;;;;;;4.62;63.63;102123.31;4921507;28;20044;-71
2024/01/26 00:23:59;;;;;;;46.60;16.98;;;;;;;4.67;63.59;102124.19;4922142;28;20114;-71
2024/01/26 00:26:25;;;;;;;52.75;18.35;;;;;;;4.69;63.07;102121.63;4916885;28;20063;-73
2024/01/26 00:28:51;;;;;;;53.42;18.98;;;;;;;4.78;63.00;102119.91;4910970;28;20035;-70
2024/01/26 00:31:18;;;;;;;53.92;16.63;;;;;;;4.76;63.10;102121.63;4931964;28;20057;-69
2024/01/26 00:33:45;;;;;;;60.30;20.80;;;;;;;4.33;64.82;102121.41;4925617;28;20062;-69
2024/01/26 00:36:12;;;;;;;59.90;19.15;;;;;;;4.30;65.30;102126.59;4932147;28;20051;-67
2024/01/26 00:38:39;;;;;;;54.58;19.13;;;;;;;4.42;65.00;102120.59;4920323;28;20141;-69
2024/01/26 00:41:04;;;;;;;64.30;20.27;;;;;;;4.37;64.49;102118.00;4917104;28;20058;-67
2024/01/26 00:43:32;;;;;;;65.05;20.17;;;;;;;4.11;65.79;102122.13;4934965;28;20038;-69
2024/01/26 00:45:58;;;;;;;68.10;20.35;;;;;;;4.37;65.31;102118.00;4919487;28;20042;-69
2024/01/26 00:48:24;;;;;;;57.88;19.77;;;;;;;4.36;65.03;102110.22;4924220;28;20689;-68
2024/01/26 00:50:50;;;;;;;56.83;20.13;;;;;;;4.48;64.47;102096.50;4917560;28;20205;-69
2024/01/26 00:53:19;;;;;;;51.70;17.77;;;;;;;4.32;65.19;102088.66;4917072;28;20036;-69
2024/01/26 00:55:44;;;;;;;42.15;17.17;;;;;;;4.36;64.94;102092.09;4918284;28;20495;-70
2024/01/26 00:58:12;;;;;;;53.75;17.80;;;;;;;4.54;64.75;102084.44;4918775;28;20039;-69
2024/01/26 01:00:38;;;;;;;47.85;18.23;;;;;;;4.73;64.16;102074.16;4908052;28;20047;-66
2024/01/26 01:03:04;;;;;;;55.88;19.27;;;;;;;4.52;64.59;102064.56;4905149;28;21358;-67
2024/01/26 01:05:31;;;;;;;50.17;18.90;;;;;;;4.77;63.91;102060.34;4908682;28;20086;-67
2024/01/26 01:07:56;;;;;;;52.03;18.42;;;;;;;4.56;64.66;102055.94;4907652;28;20058;-65
2024/01/26 01:10:22;;;;;;;48.38;17.92;;;;;;;4.57;64.50;102057.69;4896568;28;20130;-68
2024/01/26 01:12:48;;;;;;;51.72;18.08;;;;;;;4.46;65.67;102054.19;4900999;28;20023;-67
2024/01/26 01:15:13;;;;;;;48.80;18.05;;;;;;;4.48;65.09;102053.34;4917504;28;20939;-67
2024/01/26 01:17:39;;;;;;;49.72;17.30;;;;;;;4.31;66.04;102050.66;4920756;28;20061;-68
2024/01/26 01:20:08;;;;;;;42.80;16.35;;;;;;;4.53;65.75;102056.81;4923345;28;20044;-68
2024/01/26 01:22:37;;;;;;;55.38;17.30;;;;;;;4.56;65.70;102055.94;4921085;28;20129;-70
2024/01/26 01:25:06;;;;;;;45.72;16.90;;;;;;;4.82;64.28;102043.94;4920107;28;20119;-68
2024/01/26 01:27:33;;;;;;;54.10;17.90;;;;;;;4.31;66.32;102045.47;4935236;28;20502;-69
2024/01/26 01:29:59;;;;;;;48.90;16.70;;;;;;;4.80;64.80;102040.50;4919348;28;20050;-69
2024/01/26 01:32:25;;;;;;;54.28;18.98;;;;;;;4.32;65.85;102042.06;4916031;28;21447;-67
2024/01/26 01:34:52;;;;;;;49.38;18.85;;;;;;;4.15;66.47;102036.78;4921022;28;20982;-68
2024/01/26 01:37:18;;;;;;;44.92;16.45;;;;;;;4.75;65.14;102042.22;4915443;28;20122;-68
2024/01/26 01:39:43;;;;;;;54.30;17.77;;;;;;;4.88;63.81;102037.97;4919736;28;20050;-69
2024/01/26 01:42:14;;;;;;;51.35;17.80;;;;;;;4.81;64.62;102034.47;4914650;28;20031;-65
2024/01/26 01:44:47;;;;;;;50.28;17.20;;;;;;;4.69;65.07;102036.16;4924484;28;21506;-67
2024/01/26 01:47:14;;;;;;;51.35;17.00;;;;;;;4.78;64.73;102044.78;4912821;28;20063;-64
2024/01/26 01:49:41;;;;;;;44.28;17.10;;;;;;;4.89;64.96;102038.81;4920366;28;20497;-68
2024/01/26 01:52:13;;;;;;;45.45;19.13;;;;;;;4.70;65.08;102037.88;4918626;28;20028;-65
2024/01/26 01:54:40;;;;;;;51.35;17.35;;;;;;;4.59;66.60;102037.84;4950669;28;20137;-68
2024/01/26 01:57:06;;;;;;;48.15;17.27;;;;;;;4.40;67.29;102037.75;4917954;28;20468;-64
2024/01/26 01:59:33;;;;;;;50.05;18.42;;;;;;;4.71;66.30;102027.53;4917189;28;20028;-66
2024/01/26 02:01:59;;;;;;;42.72;17.45;;;;;;;5.07;65.08;102025.03;4919622;28;20032;-67
2024/01/26 02:04:27;;;;;;;41.58;16.08;;;;;;;4.98;65.11;102010.34;4928281;28;20726;-63
2024/01/26 02:06:54;;;;;;;51.03;17.10;;;;;;;4.69;66.44;102005.06;4950088;28;20031;-65
2024/01/26 02:09:20;;;;;;;49.10;19.10;;;;;;;4.95;65.53;101994.81;4917888;28;20038;-66
2024/01/26 02:11:46;;;;;;;40.60;16.48;;;;;;;4.93;65.29;101993.94;4919898;28;20031;-67
2024/01/26 02:14:11;;;;;;;48.05;17.15;;;;;;;5.33;64.38;101991.38;4915752;28;20043;-67
2024/01/26 02:16:37;;;;;;;41.75;17.45;;;;;;;4.93;65.92;101999.13;4921838;28;20035;-67
2024/01/26 02:19:03;;;;;;;44.13;16.20;;;;;;;5.04;65.54;101987.91;4924036;28;20035;-71
2024/01/26 02:21:28;;;;;;;39.70;16.08;;;;;;;5.43;64.39;101980.97;4928485;28;20085;-69
2024/01/26 02:23:54;;;;;;;38.92;16.60;;;;;;;5.23;64.97;101978.41;4925385;28;20145;-66
2024/01/26 02:26:19;;;;;;;39.47;15.82;;;;;;;5.28;64.83;101969.75;4915501;28;20336;-69
2024/01/26 02:28:45;;;;;;;35.40;15.80;;;;;;;5.14;65.43;101952.47;4920757;28;20447;-68
2024/01/26 02:31:10;;;;;;;37.22;15.05;;;;;;;5.21;64.94;101942.97;4917625;28;20056;-68
2024/01/26 02:33:39;;;;;;;38.85;15.30;;;;;;;4.98;65.80;101950.75;4921659;28;20031;-66
2024/01/26 02:36:05;;;;;;;38.80;15.23;;;;;;;5.46;64.54;101951.59;4922362;28;20118;-68
2024/01/26 02:38:30;;;;;;;42.15;15.48;;;;;;;4.83;66.04;101947.25;4936467;28;21745;-68
2024/01/26 02:40:55;;;;;;;39.58;15.45;;;;;;;4.80;67.45;101942.06;4923089;28;20078;-65
2024/01/26 02:43:21;;;;;;;42.13;16.00;;;;;;;5.27;65.74;101942.13;4919993;28;20039;-65
2024/01/26 02:45:47;;;;;;;35.25;14.52;;;;;;;5.48;65.43;101946.41;4915278;28;20131;-68
2024/01/26 02:48:14;;;;;;;38.83;15.85;;;;;;;5.77;63.77;101923.00;4915395;28;20086;-68
2024/01/26 02:50:40;;;;;;;49.95;15.60;;;;;;;5.17;66.21;101904.97;4913481;28;20052;-70
2024/01/26 02:53:05;;;;;;;37.85;15.55;;;;;;;5.30;65.84;101905.81;4911646;28;20039;-67
2024/01/26 02:55:31;;;;;;;38.78;15.32;;;;;;;5.46;65.82;101899.75;4930731;28;21064;-69
2024/01/26 02:57:56;;;;;;;34.60;14.90;;;;;;;5.60;65.07;101900.56;4919698;28;20058;-69
2024/01/26 03:00:22;;;;;;;37.95;16.33;;;;;;;5.51;65.63;101882.44;4916952;28;20043;-66
2024/01/26 03:02:47;;;;;;;33.97;13.93;;;;;;;5.89;64.28;101881.44;4917419;28;20130;-68
2024/01/26 03:05:15;;;;;;;36.28;14.38;;;;;;;5.37;66.40;101891.97;4907400;28;20598;-69
2024/01/26 03:07:41;;;;;;;41.30;16.08;;;;;;;5.42;66.04;101892.84;4916608;28;20046;-70
2024/01/26 03:10:06;;;;;;;34.92;16.02;;;;;;;5.42;66.21;101885.91;4916611;28;20043;-70
2024/01/26 03:12:33;;;;;;;36.75;14.82;;;;;;;5.33;66.84;101879.91;4928050;28;21491;-69
2024/01/26 03:15:01;;;;;;;43.13;16.02;;;;;;;5.42;66.14;101870.34;4911822;28;20109;-70
2024/01/26 03:17:27;;;;;;;38.85;15.52;;;;;;;5.82;65.41;101859.00;4912446;28;20031;-70
2024/01/26 03:19:52;;;;;;;36.30;13.77;;;;;;;5.75;65.03;101860.75;4918851;28;20154;-70
2024/01/26 03:22:20;;;;;;;34.38;13.38;;;;;;;5.71;65.60;101864.22;4913040;28;20043;-71
2024/01/26 03:24:48;;;;;;;37.50;14.10;;;;;;;5.97;64.75;101840.75;4918773;28;20043;-70
2024/01/26 03:27:14;;;;;;;42.33;16.60;;;;;;;5.38;66.68;101849.63;4910154;28;20031;-71
2024/01/26 03:29:40;;;;;;;33.42;14.05;;;;;;;5.74;65.59;101837.41;4915745;28;20039;-69
2024/01/26 03:32:06;;;;;;;40.22;15.15;;;;;;;5.39;66.98;101833.19;4918268;28;20522;-72
2024/01/26 03:34:34;;;;;;;35.83;14.40;;;;;;;5.46;66.60;101837.53;4946266;28;20046;-69
2024/01/26 03:37:00;;;;;;;41.03;16.10;;;;;;;4.88;68.87;101822.94;4921323;28;20095;-72
2024/01/26 03:39:25;;;;;;;43.72;16.05;;;;;;;5.08;67.84;101822.94;4912199;28;20039;-70
2024/01/26 03:41:51;;;;;;;35.05;15.93;;;;;;;5.34;68.08;101811.63;4916325;28;20111;-70
2024/01/26 03:44:16;;;;;;;41.05;15.50;;;;;;;5.80;66.35;101806.25;4918935;28;20069;-70
2024/01/26 03:46:43;;;;;;;41.10;15.52;;;;;;;5.51;67.11;101794.28;4921076;28;20067;-70
2024/01/26 03:49:09;;;;;;;38.50;15.82;;;;;;;5.42;67.11;101781.34;4915346;28;20113;-70
2024/01/26 03:51:36;;;;;;;37.90;14.52;;;;;;;5.42;67.03;101771.84;4919254;28;20805;-67
2024/01/26 03:54:01;;;;;;;38.13;14.90;;;;;;;5.11;67.71;101765.91;4917110;28;20036;-68
2024/01/26 03:56:27;;;;;;;45.63;17.45;;;;;;;5.20;68.38;101752.91;4911388;28;20048;-67
2024/01/26 03:58:53;;;;;;;37.55;15.63;;;;;;;5.58;67.87;101751.03;4917644;28;20060;-66
2024/01/26 04:01:20;;;;;;;38.42;16.00;;;;;;;5.25;68.09;101743.38;4911530;28;20052;-68
2024/01/26 04:03:46;;;;;;;38.63;15.00;;;;;;;5.72;66.30;101744.00;4912627;28;20046;-67
2024/01/26 04:06:11;;;;;;;40.85;17.10;;;;;;;5.80;66.33;101751.78;4928742;28;20047;-67
2024/01/26 04:08:37;;;;;;;40.38;16.63;;;;;;;5.72;66.49;101759.56;4915024;28;20039;-67
2024/01/26 04:11:05;;;;;;;41.53;18.40;;;;;;;5.28;67.38;101731.28;4917526;28;21007;-65
2024/01/26 04:13:30;;;;;;;42.70;15.73;;;;;;;5.59;66.80;101732.00;4927936;28;20046;-65
2024/01/26 04:15:55;;;;;;;39.97;17.20;;;;;;;6.04;64.89;101730.84;4932337;28;20047;-66
2024/01/26 04:18:21;;;;;;;33.50;15.63;;;;;;;5.88;65.33;101729.22;4917030;28;20040;-67
2024/01/26 04:20:51;;;;;;;31.10;13.65;;;;;;;5.58;66.62;101731.13;4917072;28;20075;-68
2024/01/26 04:23:17;;;;;;;37.15;16.27;;;;;;;5.28;67.81;101723.50;4930580;28;20036;-68
2024/01/26 04:25:43;;;;;;;35.78;14.95;;;;;;;5.55;67.07;101725.97;4914754;28;20186;-68
2024/01/26 04:28:09;;;;;;;33.17;14.15;;;;;;;5.57;67.20;101719.06;4920956;28;20068;-68
2024/01/26 04:30:35;;;;;;;28.27;13.13;;;;;;;5.42;66.37;101703.56;4913597;28;20546;-71
2024/01/26 04:33:01;;;;;;;36.78;16.13;;;;;;;5.64;66.18;101689.59;4918223;28;20042;-69
2024/01/26 04:35:27;;;;;;;33.72;13.35;;;;;;;5.80;65.36;101694.69;4914993;28;20048;-71
2024/01/26 04:37:52;;;;;;;29.90;13.32;;;;;;;5.90;65.78;101678.19;4921817;28;20031;-69
2024/01/26 04:40:19;;;;;;;31.52;13.90;;;;;;;5.87;65.51;101675.63;4921575;28;20118;-66
2024/01/26 04:42:44;;;;;;;32.00;14.70;;;;;;;5.23;67.24;101672.56;4935712;28;20039;-68
2024/01/26 04:45:10;;;;;;;37.50;16.13;;;;;;;5.59;66.18;101660.25;4920066;28;20059;-71
2024/01/26 04:47:35;;;;;;;28.52;12.85;;;;;;;5.35;66.95;101661.25;4921511;28;20035;-71
2024/01/26 04:50:01;;;;;;;30.08;12.75;;;;;;;5.62;66.25;101659.38;4921101;28;20056;-71
2024/01/26 04:52:26;;;;;;;30.17;13.20;;;;;;;5.79;65.51;101656.63;4905293;28;20036;-72
2024/01/26 04:54:52;;;;;;;26.55;11.77;;;;;;;5.72;66.41;101635.06;4919599;28;20043;-73
2024/01/26 04:57:18;;;;;;;30.70;13.55;;;;;;;5.70;66.12;101610.88;4907052;28;20128;-71
2024/01/26 04:59:43;;;;;;;27.35;12.63;;;;;;;6.08;65.01;101615.75;4902286;28;20047;-74
2024/01/26 05:02:09;;;;;;;29.73;11.88;;;;;;;5.61;65.78;101624.81;4917874;28;20058;-69
2024/01/26 05:04:34;;;;;;;26.73;12.15;;;;;;;5.60;66.50;101635.19;4914308;28;21119;-69
2024/01/26 05:07:00;;;;;;;25.05;12.40;;;;;;;6.05;65.05;101630.50;4921072;28;20060;-70
2024/01/26 05:09:25;;;;;;;28.10;13.10;;;;;;;5.67;66.15;101632.50;4927924;28;20049;-70
2024/01/26 05:11:51;;;;;;;26.05;11.73;;;;;;;6.07;64.94;101611.44;4922281;28;20070;-69
2024/01/26 05:14:18;;;;;;;26.25;12.18;;;;;;;6.04;65.39;101624.44;4932435;28;20053;-70
2024/01/26 05:16:43;;;;;;;25.50;11.52;;;;;;;5.69;66.41;101598.78;4924610;28;20055;-70
2024/01/26 05:19:09;;;;;;;22.35;11.32;;;;;;;5.73;66.42;101589.28;4920905;28;20154;-70
2024/01/26 05:21:34;;;;;;;22.48;11.35;;;;;;;5.73;66.43;101584.06;4928687;28;20039;-69
2024/01/26 05:23:59;;;;;;;25.80;12.15;;;;;;;5.35;67.17;101582.63;4925809;28;20534;-69
2024/01/26 05:26:25;;;;;;;26.00;11.02;;;;;;;5.78;66.74;101587.47;4908607;28;20521;-70
2024/01/26 05:28:50;;;;;;;24.85;12.05;;;;;;;5.74;66.26;101575.41;4916322;28;20051;-71
2024/01/26 05:31:16;;;;;;;24.95;12.20;;;;;;;5.53;67.80;101585.09;4917265;28;20055;-71
2024/01/26 05:33:41;;;;;;;24.63;12.27;;;;;;;5.20;68.15;101574.06;4917586;28;21251;-71
2024/01/26 05:36:07;;;;;;;25.42;11.68;;;;;;;5.67;67.51;101572.00;4919256;28;20047;-70
2024/01/26 05:38:32;;;;;;;27.30;12.27;;;;;;;5.42;67.81;101573.94;4910223;28;20042;-72
2024/01/26 05:40:58;;;;;;;26.10;11.57;;;;;;;5.75;67.39;101578.00;4917843;28;20067;-72
2024/01/26 05:43:23;;;;;;;25.48;11.35;;;;;;;5.64;66.77;101566.84;4928845;28;20731;-72
2024/01/26 05:45:49;;;;;;;28.20;11.68;;;;;;;5.52;68.68;101552.22;4919055;28;20081;-71
2024/01/26 05:48:14;;;;;;;25.50;11.55;;;;;;;5.75;67.06;101544.28;4920445;28;20035;-71
2024/01/26 05:50:45;;;;;;;22.35;11.63;;;;;;;6.07;66.52;101538.75;4912784;28;20051;-71
2024/01/26 05:53:10;;;;;;;24.08;11.55;;;;;;;5.56;68.15;101530.59;4934173;28;20027;-69
2024/01/26 05:55:36;;;;;;;23.92;11.93;;;;;;;5.94;67.35;101513.81;4928580;28;20044;-69
2024/01/26 05:58:03;;;;;;;21.02;10.80;;;;;;;5.85;67.29;101512.16;4925735;28;20039;-69
2024/01/26 06:00:28;;;;;;;30.73;11.93;;;;;;;5.76;68.42;101508.81;4927993;28;20075;-68
2024/01/26 06:02:54;;;;;;;24.55;11.38;;;;;;;5.96;67.21;101509.47;4918627;28;20126;-69
2024/01/26 06:05:19;;;;;;;27.05;11.70;;;;;;;5.87;67.76;101509.56;4919244;28;20418;-69
2024/01/26 06:07:45;;;;;;;21.48;10.82;;;;;;;5.60;68.80;101503.78;4915633;28;20050;-67
2024/01/26 06:10:13;;;;;;;24.30;12.05;;;;;;;5.40;69.79;101487.53;4904871;28;20404;-70
2024/01/26 06:12:40;;;;;;;26.65;12.45;;;;;;;5.37;70.26;101500.50;4912785;28;20174;-70
2024/01/26 06:15:09;;;;;;;27.70;12.38;;;;;;;5.91;68.61;101489.66;4915570;28;20050;-68
2024/01/26 06:17:35;;;;;;;26.17;11.38;;;;;;;6.40;66.67;101487.38;4922955;28;20057;-68
2024/01/26 06:20:03;;;;;;;22.75;10.52;;;;;;;5.94;67.75;101474.88;4910858;28;20773;-68
2024/01/26 06:22:30;;;;;;;22.95;10.48;;;;;;;6.01;67.94;101460.97;4907571;28;20836;-69
2024/01/26 06:24:56;;;;;;;22.23;10.43;;;;;;;5.76;68.85;101454.34;4914678;28;20134;-69
2024/01/26 06:27:22;;;;;;;24.20;12.40;;;;;;;5.79;68.83;101450.00;4898496;28;20749;-68
2024/01/26 06:29:48;;;;;;;25.58;12.68;;;;;;;5.83;68.99;101435.25;4905159;28;20046;-67
2024/01/26 06:32:13;;;;;;;24.58;11.43;;;;;;;5.94;68.79;101430.78;4899592;28;20059;-70
2024/01/26 06:34:40;;;;;;;23.05;11.13;;;;;;;6.18;67.80;101421.00;4883182;28;20055;-70
2024/01/26 06:37:06;;;;;;;23.45;11.13;;;;;;;6.06;68.50;101399.50;4904384;28;20775;-70
2024/01/26 06:39:34;;;;;;;29.98;13.25;;;;;;;5.81;69.17;101396.34;4905563;28;20031;-70
2024/01/26 06:42:00;;;;;;;28.83;12.30;;;;;;;6.09;68.45;101390.81;4918796;28;20557;-70
2024/01/26 06:44:25;;;;;;;25.75;11.68;;;;;;;6.14;68.31;101372.59;4914574;28;20055;-70
2024/01/26 06:46:51;;;;;;;30.20;13.02;;;;;;;6.18;68.36;101372.53;4929084;28;20031;-70
2024/01/26 06:49:16;;;;;;;31.27;12.52;;;;;;;5.50;70.00;101375.06;4932960;28;20062;-70
2024/01/26 06:51:44;;;;;;;28.27;12.23;;;;;;;6.09;68.60;101381.28;4911341;28;20042;-68
2024/01/26 06:54:10;;;;;;;25.05;12.82;;;;;;;5.90;69.43;101389.31;4918073;28;20031;-68
2024/01/26 06:56:36;;;;;;;29.48;13.05;;;;;;;5.87;70.18;101390.22;4910364;28;20043;-68
2024/01/26 06:59:01;;;;;;;29.73;12.38;;;;;;;5.95;69.73;101379.75;4917237;28;20031;-68
2024/01/26 07:01:27;;;;;;;26.45;11.25;;;;;;;5.83;69.56;101385.94;4904462;28;20359;-69
2024/01/26 07:03:53;;;;;;;29.73;13.50;;;;;;;5.93;69.84;101369.41;4916150;28;20097;-70
2024/01/26 07:06:18;;;;;;;30.73;13.63;;;;;;;6.31;67.92;101388.84;4920562;28;20126;-69
2024/01/26 07:08:44;;;;;;;24.63;13.85;;;;;;;5.82;69.84;101384.25;4912744;28;20071;-68
2024/01/26 07:11:09;;;;;;;28.92;13.20;;;;;;;6.45;68.11;101358.31;4911539;28;20047;-68
2024/01/26 07:13:35;;;;;;;28.67;14.73;;;;;;;5.85;69.58;101350.47;4905320;28;20046;-67
2024/01/26 07:16:01;;;;;;;28.42;12.98;;;;;;;6.08;69.27;101361.41;4933168;28;20455;-71
2024/01/26 07:18:27;;;;;;;30.80;12.77;;;;;;;6.18;69.88;101367.34;4922513;28;20027;-74
2024/01/26 07:20:53;;;;;;;25.45;11.93;;;;;;;6.20;69.21;101356.94;4900627;28;20042;-73
2024/01/26 07:23:18;;;;;;;23.50;11.20;;;;;;;5.97;69.94;101352.94;4923492;28;20042;-71
2024/01/26 07:25:44;;;;;;;23.95;11.07;;;;;;;6.19;69.73;101355.22;4928484;28;20046;-70
2024/01/26 07:28:09;;;;;;;22.17;11.27;;;;;;;6.28;69.55;101336.94;4916275;28;20043;-76
2024/01/26 07:30:37;;;;;;;26.55;11.98;;;;;;;6.16;69.97;101324.97;4914491;28;20047;-72
2024/01/26 07:33:06;;;;;;;19.75;10.07;;;;;;;6.02;70.27;101314.78;4920091;28;20031;-76
2024/01/26 07:35:31;;;;;;;19.00;9.23;;;;;;;6.20;69.48;101325.78;4917511;28;20070;-77
2024/01/26 07:37:57;;;;;;;21.58;9.35;;;;;;;5.76;71.04;101309.09;4935458;28;20032;-75
2024/01/26 07:40:23;;;;;;;17.38;9.30;;;;;;;6.05;70.74;101319.91;4919817;28;20035;-72
2024/01/26 07:42:49;;;;;;;16.17;7.85;;;;;;;6.14;69.88;101320.69;4910559;28;20046;-74
2024/01/26 07:45:14;;;;;;;16.88;7.78;;;;;;;6.12;70.35;101310.31;4917906;28;20043;-69
2024/01/26 07:47:40;;;;;;;13.65;7.05;;;;;;;6.28;69.93;101313.56;4926754;28;20027;-70
2024/01/26 07:50:06;;;;;;;16.33;6.93;;;;;;;6.28;70.14;101293.69;4920371;28;20394;-72
2024/01/26 07:52:32;;;;;;;16.13;7.05;;;;;;;5.65;71.37;101301.44;4929338;28;20078;-72
2024/01/26 07:54:58;;;;;;;12.60;6.28;;;;;;;5.86;70.70;101300.31;4920350;28;20035;-73
2024/01/26 07:57:25;;;;;;;12.15;5.90;;;;;;;6.06;70.78;101281.84;4935739;28;20042;-72
2024/01/26 07:59:51;;;;;;;12.93;5.43;;;;;;;5.93;70.93;101277.75;4904188;28;21199;-73
2024/01/26 08:02:17;;;;;;;10.38;4.60;;;;;;;6.37;70.35;101277.06;4926220;28;20069;-72
2024/01/26 08:04:42;;;;;;;8.98;5.65;;;;;;;6.42;69.70;101296.06;4885711;28;20039;-72
2024/01/26 08:07:08;;;;;;;12.77;6.50;;;;;;;5.96;70.88;101280.28;4900856;28;20139;-73
2024/01/26 08:09:33;;;;;;;11.25;6.03;;;;;;;6.18;70.62;101283.44;4893866;28;20170;-72
2024/01/26 08:11:59;;;;;;;13.40;5.68;;;;;;;5.97;70.71;101256.03;4914238;28;20731;-68
2024/01/26 08:14:25;;;;;;;11.13;5.22;;;;;;;6.68;69.01;101271.38;4921771;28;20090;-68
2024/01/26 08:16:51;;;;;;;9.57;5.30;;;;;;;6.27;70.33;101275.50;4907184;28;20067;-69
2024/01/26 08:19:16;;;;;;;10.27;5.10;;;;;;;6.27;70.00;101271.16;4927212;28;20127;-69
2024/01/26 08:21:41;;;;;;;10.77;5.80;;;;;;;6.39;70.38;101270.13;4915846;28;20032;-70
2024/01/26 08:24:07;;;;;;;8.65;4.35;;;;;;;6.88;68.28;101268.44;4927846;28;20035;-71
2024/01/26 08:26:33;;;;;;;9.65;5.18;;;;;;;6.57;69.14;101262.91;4924960;28;20040;-69
2024/01/26 08:29:02;;;;;;;8.68;4.72;;;;;;;6.11;71.33;101276.63;4931618;28;20063;-70
2024/01/26 08:31:29;;;;;;;11.95;4.93;;;;;;;6.75;69.20;101275.59;4922696;28;20039;-68
2024/01/26 08:33:55;;;;;;;9.07;4.35;;;;;;;6.59;69.52;101290.56;4928579;28;20035;-70
2024/01/26 08:36:23;;;;;;;7.28;4.75;;;;;;;6.58;69.45;101283.69;4913198;28;20057;-67
2024/01/26 08:38:50;;;;;;;8.88;5.05;;;;;;;6.02;71.15;101275.00;4914642;28;20051;-67
2024/01/26 08:41:17;;;;;;;6.72;4.40;;;;;;;6.19;70.68;101267.81;4919542;28;20668;-66
2024/01/26 08:43:42;;;;;;;9.43;3.95;;;;;;;6.45;70.28;101264.84;4922280;28;20039;-67
2024/01/26 08:46:08;;;;;;;6.57;3.80;;;;;;;6.64;69.79;101272.31;4919705;28;20043;-68
2024/01/26 08:48:33;;;;;;;7.40;4.05;;;;;;;6.68;69.44;101271.38;4929633;28;20039;-71
2024/01/26 08:51:00;;;;;;;8.00;3.33;;;;;;;6.61;69.65;101274.97;4919894;28;20047;-69
2024/01/26 08:53:25;;;;;;;13.93;4.20;;;;;;;6.55;69.65;101262.97;4937644;28;20039;-71
2024/01/26 08:55:51;;;;;;;7.55;4.07;;;;;;;6.81;68.81;101265.09;4915301;28;20507;-71
2024/01/26 08:58:17;;;;;;;6.53;3.97;;;;;;;6.74;69.06;101263.50;4934374;28;20047;-67
2024/01/26 09:00:42;;;;;;;5.82;3.33;;;;;;;6.66;69.59;101262.75;4908747;28;20043;-68
2024/01/26 09:03:08;;;;;;;4.88;3.05;;;;;;;6.46;69.71;101253.59;4923201;28;20477;-70
2024/01/26 09:05:34;;;;;;;5.15;3.20;;;;;;;6.91;68.61;101258.84;4921035;28;20040;-70
2024/01/26 09:07:59;;;;;;;5.43;3.30;;;;;;;6.68;69.02;101258.41;4915624;28;21644;-69
2024/01/26 09:10:26;;;;;;;4.22;2.60;;;;;;;6.59;69.57;101256.81;4918827;28;20122;-71
2024/01/26 09:12:52;;;;;;;7.20;3.50;;;;;;;6.49;69.70;101243.13;4910008;28;20042;-71
2024/01/26 09:15:17;;;;;;;4.65;3.10;;;;;;;6.79;68.79;101243.47;4934532;28;20047;-66
2024/01/26 09:17:43;;;;;;;4.68;3.17;;;;;;;6.53;69.81;101243.94;4917143;28;20043;-66
2024/01/26 09:20:10;;;;;;;4.50;2.20;;;;;;;6.84;68.73;101235.59;4916931;28;20130;-66
2024/01/26 09:22:36;;;;;;;4.10;2.30;;;;;;;6.62;69.31;101235.13;4914461;28;20038;-68
2024/01/26 09:25:01;;;;;;;4.28;1.77;;;;;;;6.88;68.80;101235.50;4912741;28;21373;-67
2024/01/26 09:27:28;;;;;;;3.58;2.08;;;;;;;6.61;69.92;101226.47;4934699;28;20043;-67
2024/01/26 09:29:53;;;;;;;3.97;2.08;;;;;;;6.77;69.45;101229.66;4929860;28;20102;-66
2024/01/26 09:32:19;;;;;;;4.70;2.30;;;;;;;6.94;68.26;101233.69;4918981;28;20447;-67
2024/01/26 09:34:44;;;;;;;5.15;2.13;;;;;;;7.12;67.91;101230.72;4923859;28;20582;-68
2024/01/26 09:37:10;;;;;;;3.95;2.55;;;;;;;6.67;69.79;101228.13;4921090;28;20055;-67
2024/01/26 09:39:36;;;;;;;2.28;1.70;;;;;;;6.22;70.22;101238.38;4919202;28;20127;-67
2024/01/26 09:42:02;;;;;;;4.95;1.77;;;;;;;6.78;69.83;101231.38;4915227;28;20039;-67
2024/01/26 09:44:27;;;;;;;2.40;0.90;;;;;;;6.94;68.99;101231.09;4923021;28;20049;-68
2024/01/26 09:46:54;;;;;;;1.88;0.90;;;;;;;6.80;68.78;101237.41;4903361;28;20043;-68
2024/01/26 09:49:20;;;;;;;2.30;0.60;;;;;;;6.55;70.27;101239.59;4947461;28;20071;-67
2024/01/26 09:51:46;;;;;;;7.75;0.90;;;;;;;6.44;70.37;101283.91;4917751;28;20673;-67
2024/01/26 09:54:13;;;;;;;1.70;0.52;;;;;;;6.53;69.55;101318.38;4914172;28;20043;-67
2024/01/26 09:56:38;;;;;;;3.83;0.40;;;;;;;6.19;68.14;101319.72;4918479;28;20062;-67
2024/01/26 09:59:05;;;;;;;3.67;0.35;;;;;;;6.14;67.06;101336.25;4920886;28;20039;-71
2024/01/26 10:01:34;;;;;;;4.43;0.93;;;;;;;5.96;66.27;101327.84;4917054;28;20036;-67
2024/01/26 10:04:01;;;;;;;5.55;0.47;;;;;;;5.79;65.86;101319.41;4914615;28;20594;-67
2024/01/26 10:06:26;;;;;;;7.97;0.50;;;;;;;5.41;66.09;101323.31;4917507;28;20535;-67
2024/01/26 10:08:52;;;;;;;8.45;0.60;;;;;;;6.27;63.99;101337.78;4925462;28;20043;-67
2024/01/26 10:11:17;;;;;;;9.13;0.90;;;;;;;5.79;64.76;101340.16;4915488;28;20151;-69
2024/01/26 10:13:43;;;;;;;15.45;1.25;;;;;;;4.84;65.86;101361.00;4914776;28;20071;-69
2024/01/26 10:16:11;;;;;;;15.38;1.75;;;;;;;5.14;65.00;101351.25;4903926;28;21647;-69
2024/01/26 10:18:44;;;;;;;8.95;0.90;;;;;;;5.76;63.70;101355.78;4912907;28;20094;-69
2024/01/26 10:21:10;;;;;;;14.05;1.33;;;;;;;5.48;63.81;101369.06;4919967;28;20248;-68
2024/01/26 10:23:36;;;;;;;18.45;1.60;;;;;;;5.13;64.53;101395.34;4906958;28;20034;-69
2024/01/26 10:26:02;;;;;;;13.27;1.80;;;;;;;4.69;64.36;101363.69;4907864;28;20039;-69
2024/01/26 10:28:27;;;;;;;8.43;1.02;;;;;;;4.88;64.07;101400.72;4927976;28;20035;-69
2024/01/26 10:30:53;;;;;;;16.17;1.20;;;;;;;4.98;63.64;101411.84;4899914;28;20035;-69
2024/01/26 10:33:22;;;;;;;18.88;1.83;;;;;;;4.96;63.20;101444.69;4913169;28;20062;-69
2024/01/26 10:35:56;;;;;;;17.92;1.75;;;;;;;4.59;64.49;101434.56;4914336;28;20177;-68
2024/01/26 10:38:22;;;;;;;8.98;1.02;;;;;;;5.13;62.87;101445.41;4913723;28;20354;-69
2024/01/26 10:40:52;;;;;;;20.60;1.90;;;;;;;4.86;63.13;101441.28;4915743;28;20031;-68
2024/01/26 10:43:18;;;;;;;18.02;1.00;;;;;;;4.96;62.66;101460.22;4922694;28;20130;-69
2024/01/26 10:45:44;;;;;;;12.23;1.33;;;;;;;4.38;63.38;101440.69;4915417;28;20044;-68
2024/01/26 10:48:12;;;;;;;12.98;1.35;;;;;;;4.58;62.29;101458.72;4907378;28;20117;-68
2024/01/26 10:50:39;;;;;;;9.25;1.58;;;;;;;4.41;62.39;101454.50;4890120;28;20031;-68
2024/01/26 10:53:05;;;;;;;16.17;1.35;;;;;;;4.97;61.00;101461.97;4906071;28;20035;-68
2024/01/26 10:55:31;;;;;;;15.20;1.67;;;;;;;4.45;61.61;101468.25;4893167;28;20058;-67
2024/01/26 10:57:58;;;;;;;16.33;1.73;;;;;;;4.60;61.50;101464.75;4881884;28;20042;-68
2024/01/26 11:00:24;;;;;;;15.40;1.45;;;;;;;4.79;61.10;101457.75;4915005;28;20040;-68
2024/01/26 11:02:50;;;;;;;14.40;2.15;;;;;;;4.51;62.31;101476.00;4917139;28;20031;-68
2024/01/26 11:05:17;;;;;;;13.35;0.95;;;;;;;5.10;60.81;101479.16;4912644;28;20638;-67
2024/01/26 11:07:43;;;;;;;14.85;1.52;;;;;;;4.76;61.68;101487.06;4917876;28;20058;-69
2024/01/26 11:10:15;;;;;;;14.38;2.15;;;;;;;5.03;61.30;101493.00;4910767;28;20507;-68
2024/01/26 11:12:40;;;;;;;12.20;1.52;;;;;;;5.19;61.01;101486.84;4917044;28;20066;-68
2024/01/26 11:15:08;;;;;;;15.48;1.55;;;;;;;5.15;61.16;101492.91;4909471;28;20046;-69
2024/01/26 11:17:54;;;;;;;14.82;1.70;;;;;;;4.97;60.91;101487.88;4921932;28;20039;-67